CheckWX is a tool to help pilots better visualize weather data.  It is not intended as a substitute for an official pre-flight weather briefing.

21:51:50 UTC

MMPR TAF
Licenciado Gustavo Díaz Ordaz International Airport
Puerto Vallarta, Mexico
TAF MMPR 201650Z 2018/2124 22010KT P6SM SKC TX26/2021Z TN19/2112Z FM210300 00000KT P6SM BKN015 FM210900 00000KT P6SM SCT015 FM211500 20010KT P6SM SKC

Mar-20@
18:00 UTC

Mar-20 @ 18:00 UTC

Mar-21@
03:00 UTC

Mar-21 @ 03:00 UTC

TAF MMPR 201650Z 2018/2124 22010KT P6SM SKC TX26/2021Z TN19/2112Z
Wind
  • 220° at 10 KTS
Cloud Levels
  • Clear skies

Mar-21@
03:00 UTC

Mar-21 @ 03:00 UTC

Mar-21@
09:00 UTC

Mar-21 @ 09:00 UTC

FM210300 00000KT P6SM BKN015

From

From Standard forecast or significant change

Cloud Levels
  • Broken at 1,500' AGL

Mar-21@
09:00 UTC

Mar-21 @ 09:00 UTC

Mar-21@
15:00 UTC

Mar-21 @ 15:00 UTC

FM210900 00000KT P6SM SCT015

From

From Standard forecast or significant change

Cloud Levels
  • Scattered at 1,500' AGL

Mar-21@
15:00 UTC

Mar-21 @ 15:00 UTC

Mar-22@
00:00 UTC

Mar-22 @ 00:00 UTC

FM211500 20010KT P6SM SKC

From

From Standard forecast or significant change

Wind
  • 200° at 10 KTS
Cloud Levels
  • Clear skies